createdAt,value
2018-03-11T00:02:03.624Z,76.10
2018-03-11T00:04:31.841Z,76.40
2018-03-11T00:06:59.646Z,76.40
2018-03-11T00:09:27.092Z,76.50
2018-03-11T00:11:54.597Z,76.40
2018-03-11T00:14:22.056Z,76.30
2018-03-11T00:16:49.502Z,76.50
2018-03-11T00:19:18.044Z,76.70
2018-03-11T00:21:45.499Z,76.70
2018-03-11T00:24:13.054Z,76.60
2018-03-11T00:26:40.952Z,76.70
2018-03-11T00:29:09.269Z,76.80
2018-03-11T00:31:37.820Z,76.80
2018-03-11T00:34:07.390Z,76.80
2018-03-11T00:36:35.265Z,76.80
2018-03-11T00:39:02.721Z,76.80
2018-03-11T00:41:30.609Z,76.90
2018-03-11T00:43:58.981Z,76.90
2018-03-11T00:46:27.192Z,77.00
2018-03-11T00:48:54.669Z,76.80
2018-03-11T00:51:26.742Z,76.80
2018-03-11T00:53:54.629Z,76.80
2018-03-11T00:56:22.511Z,76.90
2018-03-11T00:58:49.955Z,77.00
2018-03-11T01:01:18.200Z,77.00
2018-03-11T01:03:45.646Z,77.00
2018-03-11T01:06:13.768Z,77.00
2018-03-11T01:08:41.287Z,77.10
2018-03-11T01:11:08.738Z,77.20
2018-03-11T01:13:36.226Z,77.30
2018-03-11T01:16:03.727Z,77.30
2018-03-11T01:18:31.194Z,77.30
2018-03-11T01:20:58.636Z,77.40
2018-03-11T01:23:26.109Z,77.50
2018-03-11T01:25:53.556Z,77.50
2018-03-11T01:28:21.388Z,77.50
2018-03-11T01:30:49.434Z,77.40
2018-03-11T01:33:16.884Z,78.00
2018-03-11T01:35:44.752Z,77.20
2018-03-11T01:38:12.215Z,77.10
2018-03-11T01:40:40.193Z,77.10
2018-03-11T01:43:07.655Z,77.70
2018-03-11T01:45:35.123Z,77.00
2018-03-11T01:48:02.564Z,76.90
2018-03-11T01:50:30.641Z,77.00
2018-03-11T01:53:08.701Z,76.90
2018-03-11T01:55:36.510Z,76.90
2018-03-11T01:58:03.980Z,76.60
2018-03-11T02:00:32.195Z,76.50
2018-03-11T02:02:59.666Z,76.50
2018-03-11T02:05:27.116Z,76.20
2018-03-11T02:07:54.617Z,76.20
2018-03-11T02:10:22.143Z,76.50
2018-03-11T02:12:49.625Z,77.20
2018-03-11T02:15:17.676Z,76.50
2018-03-11T02:17:45.166Z,76.50
2018-03-11T02:20:12.758Z,76.50
2018-03-11T02:22:40.234Z,77.00
2018-03-11T02:25:07.712Z,77.00
2018-03-11T02:27:35.985Z,77.10
2018-03-11T02:30:05.512Z,76.90
2018-03-11T02:32:33.791Z,76.30
2018-03-11T02:35:01.622Z,76.30
2018-03-11T02:37:29.179Z,76.50
2018-03-11T02:39:57.212Z,76.50
2018-03-11T02:42:24.896Z,76.50
2018-03-11T02:44:52.337Z,76.40
2018-03-11T02:47:19.826Z,76.00
2018-03-11T02:49:47.285Z,76.30
2018-03-11T02:52:14.949Z,77.00
2018-03-11T02:54:42.762Z,76.70
2018-03-11T02:57:11.448Z,76.00
2018-03-11T02:59:40.362Z,76.60
2018-03-11T03:02:07.837Z,76.60
2018-03-11T03:04:35.287Z,77.50
2018-03-11T03:07:02.956Z,77.10
2018-03-11T03:09:30.392Z,77.10
2018-03-11T03:11:57.974Z,77.00
2018-03-11T03:14:25.424Z,76.60
2018-03-11T03:16:52.898Z,76.10
2018-03-11T03:19:21.890Z,76.00
2018-03-11T03:21:50.108Z,75.70
2018-03-11T03:24:17.613Z,75.70
2018-03-11T03:26:45.066Z,75.90
2018-03-11T03:29:12.575Z,76.30
2018-03-11T03:31:40.816Z,75.90
2018-03-11T03:34:08.280Z,76.00
2018-03-11T03:36:37.605Z,76.00
2018-03-11T03:39:05.828Z,75.90
2018-03-11T03:41:34.858Z,75.80
2018-03-11T03:44:03.094Z,74.50
2018-03-11T03:46:30.549Z,74.40
2018-03-11T03:48:58.282Z,74.80
2018-03-11T03:51:25.753Z,75.20
2018-03-11T03:53:53.292Z,75.30
2018-03-11T03:56:22.103Z,74.80
2018-03-11T03:58:49.761Z,74.80
2018-03-11T04:01:17.768Z,74.80
2018-03-11T04:03:45.254Z,75.10
2018-03-11T04:06:13.467Z,75.50
2018-03-11T04:08:41.126Z,75.40
2018-03-11T04:11:09.375Z,75.30
2018-03-11T04:13:36.924Z,75.20
2018-03-11T04:16:05.165Z,75.40
2018-03-11T04:18:32.650Z,75.30
2018-03-11T04:21:00.992Z,75.40
2018-03-11T04:23:28.550Z,75.30
2018-03-11T04:25:56.004Z,76.00
2018-03-11T04:28:23.671Z,77.00
2018-03-11T04:30:51.644Z,76.70
2018-03-11T04:33:19.127Z,76.60
2018-03-11T04:35:47.894Z,75.60
2018-03-11T04:38:15.378Z,75.50
2018-03-11T04:40:44.141Z,75.60
2018-03-11T04:43:12.108Z,75.50
2018-03-11T04:45:39.564Z,75.80
2018-03-11T04:48:07.033Z,75.70
2018-03-11T04:50:36.000Z,76.00
2018-03-11T04:53:03.968Z,76.00
2018-03-11T04:55:31.841Z,76.00
2018-03-11T04:58:00.083Z,76.60
2018-03-11T05:00:28.090Z,76.60
2018-03-11T05:02:55.563Z,76.50
2018-03-11T05:05:23.792Z,77.00
2018-03-11T05:07:51.333Z,76.70
2018-03-11T05:10:18.874Z,76.50
2018-03-11T05:12:47.100Z,76.50
2018-03-11T05:15:14.564Z,76.50
2018-03-11T05:17:42.258Z,76.90
2018-03-11T05:20:10.470Z,76.10
2018-03-11T05:22:38.235Z,76.10
2018-03-11T05:25:06.124Z,76.10
2018-03-11T05:27:33.901Z,76.30
2018-03-11T05:30:01.865Z,76.60
2018-03-11T05:32:29.316Z,77.20
2018-03-11T05:34:57.385Z,77.60
2018-03-11T05:37:25.264Z,77.50
2018-03-11T05:39:53.457Z,77.30
2018-03-11T05:42:21.700Z,78.10
2018-03-11T05:44:49.234Z,78.10
2018-03-11T05:47:16.686Z,78.00
2018-03-11T05:49:44.168Z,78.20
2018-03-11T05:52:11.642Z,78.50
2018-03-11T05:54:39.774Z,78.50
2018-03-11T05:57:07.471Z,78.70
2018-03-11T05:59:34.940Z,79.00
2018-03-11T06:02:02.895Z,78.80
2018-03-11T06:04:30.544Z,79.20
2018-03-11T06:06:57.990Z,79.10
2018-03-11T06:09:25.676Z,79.40
2018-03-11T06:11:53.110Z,79.70
2018-03-11T06:14:20.601Z,79.80
2018-03-11T06:16:48.037Z,79.70
2018-03-11T06:19:15.676Z,79.20
2018-03-11T06:21:43.130Z,79.00
2018-03-11T06:24:10.625Z,79.70
2018-03-11T06:26:38.087Z,79.10
2018-03-11T06:29:06.029Z,79.10
2018-03-11T06:31:33.474Z,79.50
2018-03-11T06:34:00.974Z,79.80
2018-03-11T06:36:29.644Z,80.00
2018-03-11T06:38:57.372Z,79.80
2018-03-11T06:41:25.263Z,79.90
2018-03-11T06:43:54.266Z,80.30
2018-03-11T06:46:21.774Z,80.30
2018-03-11T06:48:49.252Z,80.50
2018-03-11T06:51:16.714Z,80.40
2018-03-11T06:53:44.285Z,80.40
2018-03-11T06:56:12.061Z,80.50
2018-03-11T06:58:39.540Z,80.40
2018-03-11T07:01:08.399Z,80.60
2018-03-11T07:03:35.868Z,80.50
2018-03-11T07:06:03.333Z,80.60
2018-03-11T07:08:31.072Z,80.70
2018-03-11T07:10:58.554Z,80.40
2018-03-11T07:13:31.750Z,80.80
2018-03-11T07:16:00.424Z,82.00
2018-03-11T07:18:27.873Z,81.10
2018-03-11T07:20:55.445Z,81.10
2018-03-11T07:23:23.666Z,81.10
2018-03-11T07:25:51.469Z,81.00
2018-03-11T07:28:19.340Z,80.60
2018-03-11T07:30:46.908Z,80.20
2018-03-11T07:33:15.129Z,80.00
2018-03-11T07:35:43.052Z,80.50
2018-03-11T07:38:12.001Z,80.10
2018-03-11T07:40:40.098Z,80.10
2018-03-11T07:43:07.549Z,79.70
2018-03-11T07:45:35.281Z,79.40
2018-03-11T07:48:02.723Z,79.50
2018-03-11T07:50:30.209Z,79.60
2018-03-11T07:52:57.692Z,79.60
2018-03-11T07:55:25.646Z,79.10
2018-03-11T07:57:53.092Z,78.80
2018-03-11T08:00:20.669Z,78.60
2018-03-11T08:02:48.130Z,78.60
2018-03-11T08:05:15.621Z,78.30
2018-03-11T08:07:43.971Z,78.40
2018-03-11T08:10:11.412Z,78.30
2018-03-11T08:12:39.192Z,78.50
2018-03-11T08:15:06.679Z,78.40
2018-03-11T08:17:34.917Z,78.30
2018-03-11T08:20:02.582Z,78.30
2018-03-11T08:22:30.341Z,78.30
2018-03-11T08:24:57.812Z,78.20
2018-03-11T08:27:25.637Z,78.30
2018-03-11T08:29:53.084Z,78.30
2018-03-11T08:32:20.657Z,78.70
2018-03-11T08:34:48.403Z,78.40
2018-03-11T08:37:15.889Z,78.80
2018-03-11T08:39:43.756Z,78.90
2018-03-11T08:42:12.448Z,78.50
2018-03-11T08:44:39.904Z,78.60
2018-03-11T08:47:07.385Z,78.70
2018-03-11T08:49:35.602Z,78.70
2018-03-11T08:52:03.393Z,78.60
2018-03-11T08:54:30.846Z,78.60
2018-03-11T08:56:58.641Z,78.60
2018-03-11T08:59:27.608Z,78.00
2018-03-11T09:01:55.507Z,78.00
2018-03-11T09:04:23.730Z,77.90
2018-03-11T09:06:51.320Z,77.90
2018-03-11T09:09:19.356Z,77.90
2018-03-11T09:11:46.845Z,78.00
2018-03-11T09:14:14.308Z,78.00
2018-03-11T09:16:41.945Z,77.90
2018-03-11T09:19:09.428Z,78.00
2018-03-11T09:21:37.009Z,78.00
2018-03-11T09:24:04.452Z,77.90
2018-03-11T09:26:32.390Z,77.60
2018-03-11T09:28:59.962Z,78.00
2018-03-11T09:31:28.006Z,78.40
2018-03-11T09:33:56.293Z,78.10
2018-03-11T09:36:24.192Z,79.40
2018-03-11T09:38:51.666Z,78.50
2018-03-11T09:41:20.413Z,78.60
2018-03-11T09:43:48.078Z,78.60
2018-03-11T09:46:16.346Z,77.00
2018-03-11T09:48:44.057Z,77.00
2018-03-11T09:51:12.267Z,76.10
2018-03-11T09:53:40.300Z,76.00
2018-03-11T09:56:08.841Z,75.50
2018-03-11T09:58:36.310Z,75.50
2018-03-11T10:01:03.824Z,75.70
2018-03-11T10:03:31.352Z,75.70
2018-03-11T10:05:59.074Z,75.60
2018-03-11T10:08:26.526Z,75.60
2018-03-11T10:10:53.978Z,75.60
2018-03-11T10:13:21.712Z,75.70
2018-03-11T10:15:49.210Z,75.60
2018-03-11T10:18:17.174Z,75.60
2018-03-11T10:20:44.640Z,76.00
2018-03-11T10:23:12.098Z,75.90
2018-03-11T10:25:40.074Z,75.90
2018-03-11T10:28:07.519Z,76.40
2018-03-11T10:30:35.182Z,76.50
2018-03-11T10:33:02.789Z,76.80
2018-03-11T10:35:30.763Z,76.30
2018-03-11T10:37:58.235Z,76.90
2018-03-11T10:40:26.042Z,75.70
2018-03-11T10:42:53.537Z,75.70
2018-03-11T10:45:20.978Z,75.50
2018-03-11T10:47:48.836Z,75.10
2018-03-11T10:50:17.501Z,73.80
2018-03-11T10:52:45.010Z,73.70
2018-03-11T10:55:13.015Z,74.20
2018-03-11T10:57:40.494Z,74.60
2018-03-11T11:00:09.469Z,74.30
2018-03-11T11:02:36.928Z,74.30
2018-03-11T11:05:04.369Z,74.00
2018-03-11T11:07:31.926Z,74.50
2018-03-11T11:09:59.602Z,73.90
2018-03-11T11:12:27.077Z,73.70
2018-03-11T11:14:55.297Z,74.20
2018-03-11T11:17:22.996Z,73.80
2018-03-11T11:19:50.475Z,74.70
2018-03-11T11:22:18.689Z,73.30
2018-03-11T11:24:46.700Z,73.30
2018-03-11T11:27:14.145Z,72.70
2018-03-11T11:29:41.702Z,72.00
2018-03-11T11:32:09.191Z,71.00
2018-03-11T11:34:38.045Z,70.90
2018-03-11T11:37:05.503Z,70.80
2018-03-11T11:39:33.389Z,71.10
2018-03-11T11:42:01.236Z,70.70
2018-03-11T11:44:29.120Z,70.50
2018-03-11T11:46:56.580Z,70.40
2018-03-11T11:49:24.172Z,69.80
2018-03-11T11:51:51.654Z,69.70
2018-03-11T11:54:19.856Z,70.00
2018-03-11T11:56:47.722Z,70.20
2018-03-11T11:59:16.199Z,70.20
2018-03-11T12:01:43.641Z,69.80
2018-03-11T12:04:11.108Z,70.00
2018-03-11T12:06:38.724Z,69.70
2018-03-11T12:09:06.339Z,68.90
2018-03-11T12:11:33.788Z,68.80
2018-03-11T12:14:01.264Z,68.70
2018-03-11T12:16:28.723Z,69.10
2018-03-11T12:18:56.280Z,68.60
2018-03-11T12:21:23.765Z,68.10
2018-03-11T12:23:51.686Z,68.60
2018-03-11T12:26:19.584Z,68.50
2018-03-11T12:28:47.792Z,68.50
2018-03-11T12:31:16.205Z,68.50
2018-03-11T12:33:43.965Z,68.40
2018-03-11T12:36:11.733Z,69.30
2018-03-11T12:38:39.255Z,68.80
2018-03-11T12:41:06.999Z,68.80
2018-03-11T12:43:35.754Z,69.10
2018-03-11T12:46:03.220Z,69.10
2018-03-11T12:48:31.492Z,68.70
2018-03-11T12:50:58.967Z,68.70
2018-03-11T12:53:27.172Z,67.80
2018-03-11T12:55:55.241Z,67.80
2018-03-11T12:58:22.692Z,68.00
2018-03-11T13:00:50.161Z,68.10
2018-03-11T13:03:17.612Z,68.00
2018-03-11T13:05:45.080Z,67.80
2018-03-11T13:08:12.534Z,67.80
2018-03-11T13:10:40.218Z,68.00
2018-03-11T13:13:07.662Z,68.00
2018-03-11T13:15:35.227Z,68.00
2018-03-11T13:18:02.659Z,68.00
2018-03-11T13:20:42.215Z,68.00
2018-03-11T13:23:10.353Z,67.80
2018-03-11T13:25:38.113Z,67.80
2018-03-11T13:28:18.164Z,67.90
2018-03-11T13:30:46.302Z,67.90
2018-03-11T13:33:25.772Z,67.80
2018-03-11T13:35:54.355Z,67.50
2018-03-11T13:38:33.744Z,67.50
2018-03-11T13:41:01.603Z,67.30
2018-03-11T13:43:29.040Z,67.50
2018-03-11T13:46:08.449Z,67.70
2018-03-11T13:48:36.647Z,67.40
2018-03-11T13:51:04.280Z,67.40
2018-03-11T13:53:44.312Z,67.30
2018-03-11T13:56:12.174Z,67.40
2018-03-11T13:58:45.449Z,67.70
2018-03-11T14:01:12.869Z,67.10
2018-03-11T14:03:40.349Z,67.10
2018-03-11T14:06:07.838Z,67.50
2018-03-11T14:08:35.311Z,67.00
2018-03-11T14:11:03.850Z,66.40
2018-03-11T14:13:31.332Z,66.40
2018-03-11T14:15:59.179Z,66.10
2018-03-11T14:18:26.633Z,65.90
2018-03-11T14:20:54.565Z,65.90
2018-03-11T14:23:22.677Z,66.10
2018-03-11T14:25:50.324Z,65.60
2018-03-11T14:28:18.155Z,65.90
2018-03-11T14:30:46.367Z,65.90
2018-03-11T14:33:13.807Z,65.90
2018-03-11T14:35:41.805Z,66.10
2018-03-11T14:38:09.252Z,66.20
2018-03-11T14:40:37.338Z,65.50
2018-03-11T14:43:06.344Z,65.80
2018-03-11T14:45:33.848Z,65.80
2018-03-11T14:48:01.454Z,66.60
2018-03-11T14:50:29.737Z,65.80
2018-03-11T14:52:57.171Z,65.50
2018-03-11T14:55:25.263Z,65.80
2018-03-11T14:57:52.692Z,66.00
2018-03-11T15:00:20.188Z,65.50
2018-03-11T15:02:48.430Z,65.70
2018-03-11T15:05:15.971Z,65.60
2018-03-11T15:07:43.438Z,65.20
2018-03-11T15:10:10.886Z,65.10
2018-03-11T15:12:38.333Z,65.20
2018-03-11T15:15:05.936Z,65.10
2018-03-11T15:17:33.515Z,64.90
2018-03-11T15:20:01.795Z,64.20
2018-03-11T15:22:30.021Z,64.10
2018-03-11T15:24:58.097Z,64.30
2018-03-11T15:27:25.556Z,64.40
2018-03-11T15:29:53.000Z,63.70
2018-03-11T15:32:20.572Z,63.50
2018-03-11T15:34:48.633Z,63.80
2018-03-11T15:37:16.090Z,63.70
2018-03-11T15:39:44.274Z,63.70
2018-03-11T15:42:12.188Z,63.70
2018-03-11T15:44:39.655Z,64.00
2018-03-11T15:47:07.203Z,63.80
2018-03-11T15:49:34.615Z,63.80
2018-03-11T15:52:02.118Z,63.50
2018-03-11T15:54:29.569Z,63.70
2018-03-11T15:56:58.112Z,63.50
2018-03-11T15:59:25.630Z,63.40
2018-03-11T16:01:53.092Z,63.30
2018-03-11T16:04:20.561Z,63.90
2018-03-11T16:06:48.002Z,64.00
2018-03-11T16:09:16.057Z,64.00
2018-03-11T16:11:43.496Z,64.00
2018-03-11T16:14:12.556Z,64.00
2018-03-11T16:16:39.999Z,64.20
2018-03-11T16:19:07.466Z,64.20
2018-03-11T16:21:35.255Z,64.00
2018-03-11T16:24:03.561Z,64.60
2018-03-11T16:26:31.131Z,64.20
2018-03-11T16:28:58.589Z,64.00
2018-03-11T16:31:26.484Z,64.00
2018-03-11T16:33:53.967Z,64.30
2018-03-11T16:36:21.760Z,64.30
2018-03-11T16:38:49.277Z,64.70
2018-03-11T16:41:17.116Z,64.40
2018-03-11T16:43:44.611Z,64.50
2018-03-11T16:46:12.318Z,64.40
2018-03-11T16:48:39.792Z,64.30
2018-03-11T16:51:07.254Z,64.30
2018-03-11T16:53:34.717Z,64.30
2018-03-11T16:56:02.451Z,64.40
2018-03-11T16:58:29.905Z,64.70
2018-03-11T17:00:57.441Z,64.20
2018-03-11T17:03:24.879Z,64.20
2018-03-11T17:05:52.355Z,64.30
2018-03-11T17:08:21.105Z,64.20
2018-03-11T17:10:49.559Z,64.20
2018-03-11T17:13:17.026Z,64.30
2018-03-11T17:15:44.623Z,64.30
2018-03-11T17:18:12.646Z,64.50
2018-03-11T17:20:40.873Z,64.90
2018-03-11T17:23:09.094Z,65.30
2018-03-11T17:25:36.611Z,65.30
2018-03-11T17:28:04.077Z,65.40
2018-03-11T17:30:31.667Z,65.90
2018-03-11T17:32:59.132Z,66.10
2018-03-11T17:35:27.021Z,66.20
2018-03-11T17:37:54.505Z,66.30
2018-03-11T17:40:23.572Z,66.40
2018-03-11T17:42:51.427Z,66.30
2018-03-11T17:45:18.952Z,66.50
2018-03-11T17:47:46.577Z,66.70
2018-03-11T17:50:14.810Z,67.00
2018-03-11T17:52:42.320Z,67.00
2018-03-11T17:55:11.286Z,67.40
2018-03-11T17:57:38.724Z,67.40
2018-03-11T18:00:06.607Z,67.50
2018-03-11T18:02:34.066Z,67.70
2018-03-11T18:05:01.546Z,67.80
2018-03-11T18:07:29.772Z,68.20
2018-03-11T18:09:57.306Z,68.10
2018-03-11T18:12:24.778Z,68.30
2018-03-11T18:14:52.296Z,68.30
2018-03-11T18:17:20.515Z,68.40
2018-03-11T18:19:48.112Z,68.40
2018-03-11T18:22:16.478Z,68.50
2018-03-11T18:24:43.983Z,68.60
2018-03-11T18:27:11.385Z,68.60
2018-03-11T18:29:38.936Z,69.10
2018-03-11T18:32:06.643Z,68.80
2018-03-11T18:34:38.336Z,68.90
2018-03-11T18:37:06.664Z,69.00
2018-03-11T18:39:35.494Z,69.50
2018-03-11T18:42:02.951Z,69.50
2018-03-11T18:44:30.470Z,69.50
2018-03-11T18:46:58.165Z,69.80
2018-03-11T18:49:25.647Z,69.50
2018-03-11T18:51:53.632Z,69.40
2018-03-11T18:54:21.099Z,69.20
2018-03-11T18:56:48.973Z,69.00
2018-03-11T18:59:17.220Z,69.30
2018-03-11T19:01:44.680Z,69.20
2018-03-11T19:04:12.172Z,69.40
2018-03-11T19:06:40.387Z,69.90
2018-03-11T19:09:07.857Z,69.80
2018-03-11T19:11:36.042Z,70.10
2018-03-11T19:14:03.599Z,69.80
2018-03-11T19:16:31.624Z,70.10
2018-03-11T19:18:59.867Z,70.30
2018-03-11T19:21:27.722Z,70.20
2018-03-11T19:23:55.326Z,70.40
2018-03-11T19:26:22.837Z,70.60
2018-03-11T19:28:50.504Z,70.50
2018-03-11T19:31:18.074Z,70.50
2018-03-11T19:33:45.858Z,70.70
2018-03-11T19:36:14.023Z,71.20
2018-03-11T19:38:43.030Z,71.10
2018-03-11T19:41:11.100Z,71.00
2018-03-11T19:43:38.590Z,71.10
2018-03-11T19:46:06.611Z,71.40
2018-03-11T19:48:34.839Z,71.50
2018-03-11T19:51:02.300Z,71.50
2018-03-11T19:53:29.837Z,71.40
2018-03-11T19:55:57.786Z,71.60
2018-03-11T19:58:25.255Z,71.90
2018-03-11T20:00:53.374Z,71.80
2018-03-11T20:03:21.641Z,72.00
2018-03-11T20:05:49.133Z,72.00
2018-03-11T20:08:16.625Z,71.50
2018-03-11T20:10:44.115Z,71.50
2018-03-11T20:13:11.680Z,71.50
2018-03-11T20:15:39.296Z,71.30
2018-03-11T20:18:06.773Z,71.50
2018-03-11T20:20:34.583Z,71.50
2018-03-11T20:23:04.052Z,71.60
2018-03-11T20:25:31.577Z,71.50
2018-03-11T20:27:59.038Z,71.50
2018-03-11T20:30:28.513Z,71.30
2018-03-11T20:32:56.466Z,71.40
2018-03-11T20:35:25.434Z,71.40
2018-03-11T20:37:53.738Z,71.80
2018-03-11T20:40:22.533Z,71.90
2018-03-11T20:42:51.200Z,72.00
2018-03-11T20:45:18.670Z,72.00
2018-03-11T20:47:46.625Z,72.40
2018-03-11T20:50:15.618Z,72.70
2018-03-11T20:52:43.114Z,72.60
2018-03-11T20:55:11.907Z,72.80
2018-03-11T20:57:39.415Z,72.60
2018-03-11T21:00:06.889Z,72.50
2018-03-11T21:02:34.637Z,72.50
2018-03-11T21:05:02.102Z,72.40
2018-03-11T21:07:29.589Z,72.30
2018-03-11T21:09:57.830Z,72.00
2018-03-11T21:12:25.376Z,71.90
2018-03-11T21:14:52.841Z,72.10
2018-03-11T21:17:20.326Z,72.40
2018-03-11T21:19:49.297Z,72.60
2018-03-11T21:22:16.783Z,72.60
2018-03-11T21:24:44.252Z,72.60
2018-03-11T21:27:12.143Z,72.50
2018-03-11T21:29:40.790Z,72.20
2018-03-11T21:32:09.634Z,72.90
2018-03-11T21:34:37.601Z,72.80
2018-03-11T21:37:05.109Z,72.60
2018-03-11T21:39:33.374Z,72.80
2018-03-11T21:42:02.483Z,73.00
2018-03-11T21:44:29.958Z,73.00
2018-03-11T21:46:58.036Z,73.20
2018-03-11T21:49:25.546Z,72.70
2018-03-11T21:51:53.976Z,73.30
2018-03-11T21:54:21.490Z,72.80
2018-03-11T21:56:50.044Z,72.80
2018-03-11T21:59:17.533Z,72.80
2018-03-11T22:01:45.740Z,73.80
2018-03-11T22:04:13.635Z,73.10
2018-03-11T22:06:41.140Z,72.70
2018-03-11T22:09:09.377Z,72.80
2018-03-11T22:11:36.831Z,72.80
2018-03-11T22:14:04.915Z,72.80
2018-03-11T22:16:32.360Z,72.90
2018-03-11T22:19:00.027Z,73.30
2018-03-11T22:21:27.478Z,73.30
2018-03-11T22:23:54.993Z,73.20
2018-03-11T22:26:22.468Z,72.50
2018-03-11T22:28:49.961Z,72.60
2018-03-11T22:31:18.068Z,71.90
2018-03-11T22:33:45.882Z,72.60
2018-03-11T22:36:13.675Z,73.10
2018-03-11T22:38:41.204Z,73.10
2018-03-11T22:41:09.197Z,72.80
2018-03-11T22:43:38.131Z,72.40
2018-03-11T22:46:05.621Z,72.40
2018-03-11T22:48:33.598Z,72.70
2018-03-11T22:51:01.082Z,73.20
2018-03-11T22:53:29.294Z,74.50
2018-03-11T22:55:57.097Z,73.80
2018-03-11T22:58:24.587Z,73.30
2018-03-11T23:00:52.812Z,73.20
2018-03-11T23:03:20.284Z,73.20
2018-03-11T23:05:47.765Z,73.10
2018-03-11T23:08:16.574Z,73.30
2018-03-11T23:10:44.321Z,73.20
2018-03-11T23:13:12.574Z,73.60
2018-03-11T23:15:40.088Z,73.60
2018-03-11T23:18:07.905Z,73.50
2018-03-11T23:20:36.171Z,73.50
2018-03-11T23:23:03.891Z,73.50
2018-03-11T23:25:31.365Z,73.00
2018-03-11T23:27:59.163Z,73.10
2018-03-11T23:30:27.174Z,72.90
2018-03-11T23:32:54.681Z,73.00
2018-03-11T23:35:22.818Z,73.30
2018-03-11T23:37:50.696Z,72.90
2018-03-11T23:40:18.593Z,72.80
2018-03-11T23:42:46.381Z,72.70
2018-03-11T23:45:14.639Z,72.50
2018-03-11T23:47:42.591Z,72.40
2018-03-11T23:50:10.066Z,72.30
2018-03-11T23:52:37.506Z,72.10
2018-03-11T23:55:05.582Z,72.20
2018-03-11T23:57:33.085Z,72.30
